Time;durP1;ratioP1;P1;durP2;ratioP2;P2;SDS_P1;SDS_P2;PMS_P1;PMS_P2;Temp;Humidity;BMP_temperature;BMP_pressure;BME280_temperature;BME280_humidity;BME280_pressure;Samples;Min_cycle;Max_cycle;Signal;HPM_P1;HPM_P2
2023/01/30 00:01:29;;;;;;;10.37;7.20;;;;;;;;;;5003740;28;20454;-57
2023/01/30 00:03:55;;;;;;;12.67;8.37;;;;;;;;;;5038693;28;20574;-57
2023/01/30 00:06:21;;;;;;;12.57;9.07;;;;;;;;;;5035148;28;20568;-57
2023/01/30 00:08:47;;;;;;;20.20;9.40;;;;;;;;;;5037796;28;20435;-58
2023/01/30 00:11:13;;;;;;;13.60;9.43;;;;;;;;;;4973900;28;20458;-56
2023/01/30 00:13:39;;;;;;;11.80;7.80;;;;;;;;;;5045088;28;20438;-58
2023/01/30 00:16:05;;;;;;;14.90;7.37;;;;;;;;;;5022324;28;21269;-56
2023/01/30 00:18:31;;;;;;;14.23;8.23;;;;;;;;;;5032197;28;20457;-59
2023/01/30 00:20:58;;;;;;;9.73;7.53;;;;;;;;;;5032181;28;21187;-57
2023/01/30 00:23:24;;;;;;;12.87;8.43;;;;;;;;;;5034093;28;20505;-58
2023/01/30 00:25:50;;;;;;;14.03;8.83;;;;;;;;;;5032555;28;20490;-59
2023/01/30 00:28:18;;;;;;;10.87;7.20;;;;;;;;;;5030480;28;20801;-58
2023/01/30 00:30:44;;;;;;;9.97;7.53;;;;;;;;;;5038523;28;20482;-57
2023/01/30 00:33:10;;;;;;;8.90;5.97;;;;;;;;;;5024702;28;20954;-58
2023/01/30 00:35:36;;;;;;;11.03;7.63;;;;;;;;;;5039998;28;20446;-57
2023/01/30 00:38:02;;;;;;;14.20;8.03;;;;;;;;;;5015845;28;20462;-57
2023/01/30 00:40:28;;;;;;;16.00;8.40;;;;;;;;;;5042091;28;20485;-55
2023/01/30 00:48:24;;;;;;;10.87;7.43;;;;;;;;;;5017521;28;20469;-59
2023/01/30 00:50:50;;;;;;;10.17;6.90;;;;;;;;;;5023181;28;20431;-59
2023/01/30 00:53:16;;;;;;;15.00;8.37;;;;;;;;;;5032710;28;20472;-59
2023/01/30 00:55:43;;;;;;;14.07;7.67;;;;;;;;;;5035470;28;20520;-59
2023/01/30 00:58:09;;;;;;;13.00;6.80;;;;;;;;;;5014071;28;20439;-59
2023/01/30 01:00:35;;;;;;;14.53;7.70;;;;;;;;;;5025402;28;20440;-57
2023/01/30 01:03:01;;;;;;;9.27;6.40;;;;;;;;;;5040453;28;20434;-57
2023/01/30 01:05:27;;;;;;;13.50;7.80;;;;;;;;;;5037235;28;20481;-57
2023/01/30 01:07:53;;;;;;;18.27;9.93;;;;;;;;;;5017541;28;20446;-57
2023/01/30 01:10:19;;;;;;;10.30;7.13;;;;;;;;;;5019453;28;20461;-58
2023/01/30 01:12:45;;;;;;;11.87;8.30;;;;;;;;;;4986896;28;20474;-57
2023/01/30 01:15:12;;;;;;;10.10;7.20;;;;;;;;;;5036532;28;20447;-56
2023/01/30 01:17:38;;;;;;;12.93;6.77;;;;;;;;;;5015010;28;20454;-56
2023/01/30 01:20:04;;;;;;;9.03;7.50;;;;;;;;;;5042342;28;20521;-57
2023/01/30 01:22:30;;;;;;;15.03;8.07;;;;;;;;;;5032430;28;20482;-58
2023/01/30 01:24:56;;;;;;;13.67;8.50;;;;;;;;;;5038769;28;20486;-57
2023/01/30 01:27:22;;;;;;;18.97;9.27;;;;;;;;;;5002505;28;20823;-56
2023/01/30 01:29:48;;;;;;;12.20;8.40;;;;;;;;;;5040226;28;20732;-55
2023/01/30 01:32:14;;;;;;;13.60;8.67;;;;;;;;;;5029930;28;20992;-57
2023/01/30 01:34:40;;;;;;;18.77;9.67;;;;;;;;;;5036816;28;21000;-57
2023/01/30 01:37:06;;;;;;;10.07;7.40;;;;;;;;;;5001232;28;20451;-57
2023/01/30 01:42:17;;;;;;;13.10;9.53;;;;;;;;;;4994229;28;20530;-58
2023/01/30 01:45:15;;;;;;;14.37;8.13;;;;;;;;;;5033553;28;20569;-58
2023/01/30 01:48:02;;;;;;;12.47;7.90;;;;;;;;;;4966657;28;20454;-58
2023/01/30 01:50:37;;;;;;;11.50;7.17;;;;;;;;;;5034289;28;21197;-58
2023/01/30 01:53:03;;;;;;;8.93;6.47;;;;;;;;;;5010308;28;22273;-57
2023/01/30 01:55:29;;;;;;;16.60;9.20;;;;;;;;;;5014402;28;21333;-56
2023/01/30 01:57:56;;;;;;;11.40;9.07;;;;;;;;;;5014768;28;20913;-57
2023/01/30 02:00:22;;;;;;;12.77;7.80;;;;;;;;;;5010465;28;20438;-57
2023/01/30 02:03:11;;;;;;;11.33;9.10;;;;;;;;;;5005342;28;20972;-57
2023/01/30 02:05:38;;;;;;;10.40;7.77;;;;;;;;;;5031793;28;20481;-58
2023/01/30 02:08:10;;;;;;;15.77;9.03;;;;;;;;;;5008511;28;20431;-57
2023/01/30 02:10:40;;;;;;;10.53;7.83;;;;;;;;;;5037224;28;20456;-56
2023/01/30 02:13:06;;;;;;;14.43;7.43;;;;;;;;;;4989242;28;20450;-55
2023/01/30 02:15:32;;;;;;;11.07;8.47;;;;;;;;;;5036362;28;20893;-57
2023/01/30 02:17:58;;;;;;;9.37;7.90;;;;;;;;;;5005260;28;20452;-58
2023/01/30 02:20:42;;;;;;;10.40;6.27;;;;;;;;;;5020880;28;20434;-58
2023/01/30 02:23:11;;;;;;;10.47;7.90;;;;;;;;;;5008568;28;20449;-56
2023/01/30 02:25:57;;;;;;;15.10;8.50;;;;;;;;;;5034000;28;20599;-58
2023/01/30 02:28:33;;;;;;;13.33;6.77;;;;;;;;;;5029993;28;20504;-57
2023/01/30 02:31:18;;;;;;;12.70;7.67;;;;;;;;;;5016662;28;20968;-55
2023/01/30 02:33:48;;;;;;;14.27;8.63;;;;;;;;;;5028263;28;20495;-58
2023/01/30 02:36:23;;;;;;;11.07;8.13;;;;;;;;;;5016120;28;20469;-57
2023/01/30 02:39:01;;;;;;;12.20;8.90;;;;;;;;;;5001467;28;20912;-58
2023/01/30 02:41:30;;;;;;;12.13;7.03;;;;;;;;;;5028126;28;20433;-58
2023/01/30 02:44:01;;;;;;;13.17;8.30;;;;;;;;;;5032261;28;20683;-59
2023/01/30 02:46:37;;;;;;;16.60;9.63;;;;;;;;;;5019431;28;20565;-57
2023/01/30 02:49:06;;;;;;;12.60;6.97;;;;;;;;;;5004452;28;21104;-57
2023/01/30 02:51:35;;;;;;;12.53;7.67;;;;;;;;;;5035796;28;20994;-58
2023/01/30 02:54:01;;;;;;;10.13;7.87;;;;;;;;;;5006994;28;20787;-58
2023/01/30 02:56:27;;;;;;;12.77;8.37;;;;;;;;;;5041107;28;20434;-57
2023/01/30 02:58:55;;;;;;;11.00;8.70;;;;;;;;;;5010842;28;20963;-57
2023/01/30 03:01:27;;;;;;;12.70;7.20;;;;;;;;;;5023584;28;20524;-57
2023/01/30 03:03:56;;;;;;;12.87;9.40;;;;;;;;;;5033786;28;20999;-57
2023/01/30 03:06:33;;;;;;;11.43;8.73;;;;;;;;;;5015877;28;20485;-58
2023/01/30 03:09:13;;;;;;;11.07;9.37;;;;;;;;;;5042300;28;20445;-58
2023/01/30 03:11:56;;;;;;;11.60;8.60;;;;;;;;;;4995082;28;20484;-58
2023/01/30 03:14:37;;;;;;;9.90;7.37;;;;;;;;;;5043543;28;20461;-57
2023/01/30 03:17:03;;;;;;;9.97;6.70;;;;;;;;;;5016273;28;20438;-57
2023/01/30 03:19:34;;;;;;;9.97;6.40;;;;;;;;;;5034707;28;20444;-57
2023/01/30 03:22:00;;;;;;;12.13;8.47;;;;;;;;;;4984013;28;20956;-57
2023/01/30 03:24:26;;;;;;;11.30;8.03;;;;;;;;;;4992590;28;20445;-58
2023/01/30 03:26:54;;;;;;;14.00;8.03;;;;;;;;;;5041726;28;20500;-57
2023/01/30 03:29:20;;;;;;;10.80;6.77;;;;;;;;;;5031470;28;20434;-57
2023/01/30 03:31:45;;;;;;;11.60;7.73;;;;;;;;;;5040638;28;20461;-57
2023/01/30 03:34:12;;;;;;;8.53;6.60;;;;;;;;;;5002173;28;20508;-58
2023/01/30 03:36:38;;;;;;;11.43;7.77;;;;;;;;;;5036068;28;21288;-57
2023/01/30 03:39:03;;;;;;;10.77;6.87;;;;;;;;;;5008559;28;20446;-56
2023/01/30 03:41:29;;;;;;;11.27;7.10;;;;;;;;;;5010958;28;20545;-56
2023/01/30 03:43:55;;;;;;;13.87;7.67;;;;;;;;;;5033085;28;20429;-56
2023/01/30 03:46:21;;;;;;;14.47;7.30;;;;;;;;;;5018071;28;21254;-54
2023/01/30 03:48:47;;;;;;;9.30;5.70;;;;;;;;;;5034873;28;20465;-58
2023/01/30 03:51:13;;;;;;;12.20;7.80;;;;;;;;;;5035540;28;20434;-59
2023/01/30 03:53:39;;;;;;;8.73;6.90;;;;;;;;;;5034086;28;20488;-56
2023/01/30 03:56:06;;;;;;;7.37;6.33;;;;;;;;;;4998566;28;20449;-58
2023/01/30 03:58:32;;;;;;;11.83;7.40;;;;;;;;;;5031458;28;20447;-56
2023/01/30 04:00:58;;;;;;;10.47;7.73;;;;;;;;;;5017445;28;20466;-58
2023/01/30 04:03:24;;;;;;;11.50;6.43;;;;;;;;;;5029100;28;20525;-57
2023/01/30 04:05:50;;;;;;;10.87;7.70;;;;;;;;;;5037623;28;20513;-57
2023/01/30 04:08:16;;;;;;;9.37;6.10;;;;;;;;;;5034880;28;20426;-57
2023/01/30 04:10:42;;;;;;;9.07;6.73;;;;;;;;;;5015072;28;20456;-58
2023/01/30 04:13:08;;;;;;;14.20;7.37;;;;;;;;;;5033053;28;21419;-57
2023/01/30 04:15:33;;;;;;;8.73;5.77;;;;;;;;;;5001023;28;20446;-57
2023/01/30 04:17:59;;;;;;;12.77;6.63;;;;;;;;;;5040126;28;20423;-57
2023/01/30 04:20:25;;;;;;;12.60;7.70;;;;;;;;;;5011965;28;20443;-58
2023/01/30 04:22:51;;;;;;;9.57;6.90;;;;;;;;;;5041477;28;20973;-57
2023/01/30 04:25:18;;;;;;;12.50;6.17;;;;;;;;;;5037173;28;20515;-55
2023/01/30 04:27:43;;;;;;;7.40;5.40;;;;;;;;;;5038623;28;20439;-57
2023/01/30 04:30:10;;;;;;;8.43;6.40;;;;;;;;;;4990495;28;20880;-56
2023/01/30 04:32:36;;;;;;;10.97;6.40;;;;;;;;;;5025765;28;20464;-57
2023/01/30 04:35:02;;;;;;;8.63;5.60;;;;;;;;;;5034565;28;20438;-57
2023/01/30 04:37:28;;;;;;;13.60;6.97;;;;;;;;;;5033834;28;20451;-57
2023/01/30 04:39:54;;;;;;;11.97;6.40;;;;;;;;;;5039521;28;20430;-58
2023/01/30 04:42:19;;;;;;;7.73;6.10;;;;;;;;;;5037789;28;20434;-58
2023/01/30 04:44:45;;;;;;;10.03;6.03;;;;;;;;;;5014278;28;20492;-58
2023/01/30 04:47:11;;;;;;;9.97;6.93;;;;;;;;;;5036413;28;20445;-56
2023/01/30 04:49:37;;;;;;;8.50;5.87;;;;;;;;;;5004622;28;21127;-57
2023/01/30 04:52:03;;;;;;;13.80;6.43;;;;;;;;;;5016378;28;20526;-57
2023/01/30 04:54:29;;;;;;;7.60;6.37;;;;;;;;;;5032826;28;20695;-55
2023/01/30 04:56:56;;;;;;;7.80;5.97;;;;;;;;;;5034046;28;20948;-58
2023/01/30 04:59:22;;;;;;;11.70;6.50;;;;;;;;;;4986828;28;21131;-56
2023/01/30 05:01:48;;;;;;;7.50;5.10;;;;;;;;;;5030196;28;20442;-57
2023/01/30 05:04:14;;;;;;;8.33;6.17;;;;;;;;;;5026924;28;20438;-56
2023/01/30 05:06:40;;;;;;;8.47;5.57;;;;;;;;;;5035013;28;21157;-57
2023/01/30 05:09:06;;;;;;;7.93;5.37;;;;;;;;;;5032225;28;20450;-56
2023/01/30 05:11:32;;;;;;;7.30;5.43;;;;;;;;;;5037040;28;20529;-56
2023/01/30 05:13:58;;;;;;;11.70;6.80;;;;;;;;;;5029418;28;20418;-56
2023/01/30 05:16:24;;;;;;;9.73;5.80;;;;;;;;;;5030815;28;20472;-58
2023/01/30 05:18:50;;;;;;;8.63;6.33;;;;;;;;;;5024049;28;20466;-57
2023/01/30 05:21:21;;;;;;;8.37;5.73;;;;;;;;;;5020645;28;20439;-59
2023/01/30 05:23:46;;;;;;;7.70;5.90;;;;;;;;;;5022903;28;20564;-56
2023/01/30 05:26:13;;;;;;;8.00;6.73;;;;;;;;;;5025826;28;20469;-57
2023/01/30 05:28:39;;;;;;;9.70;5.47;;;;;;;;;;5003916;28;21005;-56
2023/01/30 05:31:05;;;;;;;8.53;5.10;;;;;;;;;;5022054;28;20940;-56
2023/01/30 05:33:32;;;;;;;8.97;8.03;;;;;;;;;;5032843;28;20434;-58
2023/01/30 05:35:58;;;;;;;11.00;6.20;;;;;;;;;;4976014;28;20461;-58
2023/01/30 05:38:24;;;;;;;7.47;5.70;;;;;;;;;;5038299;28;20426;-58
2023/01/30 05:40:59;;;;;;;7.73;5.07;;;;;;;;;;5013360;28;20430;-57
2023/01/30 05:43:25;;;;;;;9.27;6.30;;;;;;;;;;5033385;28;20510;-58
2023/01/30 05:45:54;;;;;;;6.50;5.87;;;;;;;;;;5039772;28;20545;-57
2023/01/30 05:48:21;;;;;;;5.87;4.87;;;;;;;;;;5039739;28;20473;-58
2023/01/30 05:50:47;;;;;;;10.33;6.87;;;;;;;;;;5016330;28;20480;-57
2023/01/30 05:53:13;;;;;;;8.13;5.83;;;;;;;;;;5035233;28;20430;-55
2023/01/30 05:55:39;;;;;;;7.97;5.20;;;;;;;;;;5005217;28;20469;-57
2023/01/30 05:58:05;;;;;;;7.87;6.90;;;;;;;;;;5032471;28;20427;-55
2023/01/30 06:00:30;;;;;;;8.10;6.83;;;;;;;;;;5008553;28;21345;-58
2023/01/30 06:02:56;;;;;;;7.97;6.73;;;;;;;;;;5032822;28;20843;-57
2023/01/30 06:05:22;;;;;;;8.40;5.87;;;;;;;;;;4987715;28;24290;-59
2023/01/30 06:07:48;;;;;;;10.30;6.10;;;;;;;;;;5021883;28;20442;-60
2023/01/30 06:10:14;;;;;;;10.87;6.60;;;;;;;;;;5033867;28;20451;-58
2023/01/30 06:12:40;;;;;;;6.93;5.40;;;;;;;;;;5012842;28;20442;-58
2023/01/30 06:15:07;;;;;;;5.87;4.50;;;;;;;;;;5039840;28;20446;-58
2023/01/30 06:17:33;;;;;;;5.57;4.90;;;;;;;;;;5032407;28;20444;-58
2023/01/30 06:19:58;;;;;;;8.13;6.20;;;;;;;;;;5030678;28;20438;-56
2023/01/30 06:22:24;;;;;;;7.07;5.00;;;;;;;;;;5013905;28;20495;-57
2023/01/30 06:24:50;;;;;;;10.00;6.43;;;;;;;;;;5036544;28;20531;-59
2023/01/30 06:27:16;;;;;;;13.60;7.87;;;;;;;;;;5016552;28;20438;-59
2023/01/30 06:29:42;;;;;;;6.93;5.47;;;;;;;;;;5045930;28;20437;-60
2023/01/30 06:32:09;;;;;;;8.87;5.70;;;;;;;;;;5044464;28;20432;-58
2023/01/30 06:34:35;;;;;;;10.83;6.57;;;;;;;;;;5043501;28;20434;-58
2023/01/30 06:37:01;;;;;;;5.57;5.03;;;;;;;;;;5000850;28;21029;-57
2023/01/30 06:39:27;;;;;;;8.10;6.10;;;;;;;;;;5042363;28;20440;-58
2023/01/30 06:41:53;;;;;;;8.83;6.60;;;;;;;;;;4997468;28;20438;-58
2023/01/30 06:44:19;;;;;;;6.00;4.80;;;;;;;;;;5046083;28;20542;-61
2023/01/30 06:46:45;;;;;;;8.30;6.43;;;;;;;;;;5037847;28;20445;-59
2023/01/30 06:49:11;;;;;;;6.17;5.20;;;;;;;;;;5042435;28;20425;-60
2023/01/30 06:51:36;;;;;;;15.07;6.20;;;;;;;;;;5001511;28;20441;-61
2023/01/30 06:54:03;;;;;;;9.90;6.57;;;;;;;;;;5017842;28;20864;-59
2023/01/30 06:56:28;;;;;;;7.07;5.30;;;;;;;;;;5036438;28;20461;-61
2023/01/30 06:58:54;;;;;;;5.87;4.47;;;;;;;;;;4999860;28;21514;-60
2023/01/30 07:01:20;;;;;;;12.40;6.97;;;;;;;;;;5039873;28;20434;-58
2023/01/30 07:03:47;;;;;;;11.00;5.50;;;;;;;;;;5027065;28;20438;-58
2023/01/30 07:06:13;;;;;;;8.37;4.93;;;;;;;;;;5029536;28;20482;-59
2023/01/30 07:08:49;;;;;;;7.40;5.30;;;;;;;;;;5000904;28;20438;-59
2023/01/30 07:11:15;;;;;;;11.17;6.00;;;;;;;;;;5025142;28;21079;-59
2023/01/30 07:13:41;;;;;;;14.50;7.20;;;;;;;;;;5041383;28;20450;-57
2023/01/30 07:16:07;;;;;;;7.40;5.00;;;;;;;;;;5037844;28;20422;-55
2023/01/30 07:18:33;;;;;;;8.47;4.47;;;;;;;;;;5042252;28;20480;-57
2023/01/30 07:20:59;;;;;;;10.67;6.70;;;;;;;;;;5008781;28;20569;-58
2023/01/30 07:23:25;;;;;;;10.10;5.83;;;;;;;;;;5039976;28;20477;-60
2023/01/30 07:25:51;;;;;;;5.83;4.60;;;;;;;;;;5009539;28;20477;-57
2023/01/30 07:28:17;;;;;;;10.10;6.20;;;;;;;;;;5020788;28;20496;-61
2023/01/30 07:30:43;;;;;;;7.13;5.07;;;;;;;;;;5040037;28;20450;-59
2023/01/30 07:33:09;;;;;;;8.60;4.77;;;;;;;;;;5017309;28;21652;-59
2023/01/30 07:35:35;;;;;;;9.17;5.47;;;;;;;;;;5038875;28;20440;-60
2023/01/30 07:38:01;;;;;;;6.93;5.90;;;;;;;;;;5020096;28;20500;-60
2023/01/30 07:40:27;;;;;;;8.90;4.70;;;;;;;;;;5043274;28;20431;-59
2023/01/30 07:42:57;;;;;;;6.70;4.33;;;;;;;;;;4990542;28;20538;-56
2023/01/30 07:45:23;;;;;;;7.60;5.00;;;;;;;;;;5039861;28;20482;-59
2023/01/30 07:47:49;;;;;;;5.00;4.03;;;;;;;;;;5040901;28;20458;-59
2023/01/30 07:50:15;;;;;;;5.70;4.90;;;;;;;;;;5043173;28;20447;-60
2023/01/30 07:52:41;;;;;;;5.60;4.60;;;;;;;;;;5009684;28;20446;-57
2023/01/30 07:55:07;;;;;;;6.37;4.70;;;;;;;;;;5016481;28;20450;-60
2023/01/30 07:57:33;;;;;;;4.40;4.00;;;;;;;;;;5023702;28;20485;-60
2023/01/30 07:59:59;;;;;;;8.37;4.50;;;;;;;;;;5042098;28;20466;-59
2023/01/30 08:02:25;;;;;;;4.63;4.13;;;;;;;;;;5015993;28;20279;-59
2023/01/30 08:04:51;;;;;;;5.30;3.97;;;;;;;;;;5040486;28;20470;-60
2023/01/30 08:07:17;;;;;;;7.40;5.10;;;;;;;;;;5028469;28;20439;-56
2023/01/30 08:09:43;;;;;;;8.17;5.27;;;;;;;;;;5037772;28;20454;-59
2023/01/30 08:12:09;;;;;;;9.10;5.47;;;;;;;;;;5013388;28;20913;-60
2023/01/30 08:14:35;;;;;;;10.70;5.30;;;;;;;;;;5018507;28;20458;-61
2023/01/30 08:17:01;;;;;;;6.87;4.37;;;;;;;;;;5015879;28;20518;-59
2023/01/30 08:19:27;;;;;;;8.80;5.53;;;;;;;;;;5035762;28;20472;-59
2023/01/30 08:21:53;;;;;;;5.73;5.00;;;;;;;;;;5032370;28;23563;-59
2023/01/30 08:24:19;;;;;;;7.03;5.10;;;;;;;;;;5023741;28;20430;-59
2023/01/30 08:26:47;;;;;;;10.97;6.10;;;;;;;;;;5033637;28;21118;-60
2023/01/30 08:29:13;;;;;;;10.00;5.17;;;;;;;;;;5017049;28;20575;-59
2023/01/30 08:31:39;;;;;;;7.93;5.53;;;;;;;;;;5036936;28;21452;-59
2023/01/30 08:34:05;;;;;;;9.37;5.90;;;;;;;;;;5015573;28;20442;-60
2023/01/30 08:36:31;;;;;;;6.50;4.70;;;;;;;;;;5036815;28;20443;-61
2023/01/30 08:38:57;;;;;;;6.67;5.80;;;;;;;;;;5038077;28;20454;-60
2023/01/30 08:41:23;;;;;;;6.50;4.00;;;;;;;;;;5028459;28;20443;-60
2023/01/30 08:43:49;;;;;;;9.30;5.60;;;;;;;;;;4989893;28;20776;-62
2023/01/30 08:46:16;;;;;;;7.87;4.90;;;;;;;;;;5024721;28;20478;-61
2023/01/30 08:48:43;;;;;;;6.83;4.03;;;;;;;;;;5035253;28;20488;-58
2023/01/30 08:51:09;;;;;;;5.47;4.63;;;;;;;;;;5040191;28;20831;-61
2023/01/30 08:53:35;;;;;;;11.40;4.90;;;;;;;;;;5014012;28;20434;-61
2023/01/30 08:56:01;;;;;;;6.53;4.93;;;;;;;;;;5017630;28;20959;-62
2023/01/30 08:58:27;;;;;;;7.67;4.03;;;;;;;;;;5016527;28;20541;-60
2023/01/30 09:00:53;;;;;;;7.43;4.23;;;;;;;;;;5038428;28;20959;-59
2023/01/30 09:03:19;;;;;;;6.00;4.43;;;;;;;;;;4999437;28;21884;-61
2023/01/30 09:05:45;;;;;;;5.30;4.23;;;;;;;;;;5033465;28;20474;-61
2023/01/30 09:08:12;;;;;;;5.73;3.20;;;;;;;;;;5034851;28;20427;-59
2023/01/30 09:10:38;;;;;;;9.07;4.30;;;;;;;;;;5036795;28;20695;-57
2023/01/30 09:13:04;;;;;;;5.20;4.10;;;;;;;;;;5005613;28;21065;-58
2023/01/30 09:15:31;;;;;;;7.60;4.10;;;;;;;;;;5026098;28;20442;-60
2023/01/30 09:17:57;;;;;;;8.50;4.83;;;;;;;;;;5037181;28;23072;-59
2023/01/30 09:20:24;;;;;;;4.80;3.77;;;;;;;;;;5014362;28;20959;-57
2023/01/30 09:22:50;;;;;;;5.80;4.17;;;;;;;;;;5035350;28;20437;-58
2023/01/30 09:25:16;;;;;;;5.17;3.37;;;;;;;;;;5031088;28;20467;-56
2023/01/30 09:27:43;;;;;;;7.70;4.60;;;;;;;;;;5032970;28;20429;-57
2023/01/30 09:30:09;;;;;;;8.43;4.50;;;;;;;;;;5032259;28;20435;-55
2023/01/30 09:32:36;;;;;;;3.80;3.23;;;;;;;;;;5028952;28;20952;-57
2023/01/30 09:35:02;;;;;;;10.30;4.07;;;;;;;;;;5017252;28;20557;-56
2023/01/30 09:37:28;;;;;;;4.50;3.00;;;;;;;;;;5033650;28;20438;-56
2023/01/30 09:39:54;;;;;;;6.67;3.80;;;;;;;;;;5033829;28;20434;-56
2023/01/30 09:42:35;;;;;;;6.03;3.80;;;;;;;;;;5036176;28;20485;-55
2023/01/30 09:45:20;;;;;;;7.27;3.80;;;;;;;;;;5031212;28;20479;-56
2023/01/30 09:47:54;;;;;;;3.20;2.90;;;;;;;;;;5020173;28;20476;-56
2023/01/30 09:50:32;;;;;;;3.77;3.47;;;;;;;;;;5012795;28;20441;-56
2023/01/30 09:53:01;;;;;;;4.20;3.07;;;;;;;;;;5036644;28;20426;-56
2023/01/30 09:55:28;;;;;;;3.57;3.27;;;;;;;;;;5031002;28;20445;-58
2023/01/30 09:57:54;;;;;;;4.20;3.00;;;;;;;;;;5035702;28;20481;-56
2023/01/30 10:00:41;;;;;;;6.07;4.07;;;;;;;;;;5034047;28;20971;-58
2023/01/30 10:03:09;;;;;;;5.30;3.03;;;;;;;;;;5041264;28;20851;-56
2023/01/30 10:05:44;;;;;;;5.07;3.57;;;;;;;;;;4991609;28;20509;-58
2023/01/30 10:08:29;;;;;;;4.80;3.30;;;;;;;;;;5036901;28;20469;-57
2023/01/30 10:11:01;;;;;;;3.67;3.30;;;;;;;;;;5034285;28;20427;-57
2023/01/30 10:13:39;;;;;;;5.70;2.67;;;;;;;;;;5014657;28;20462;-57
2023/01/30 10:16:21;;;;;;;4.17;3.77;;;;;;;;;;5022491;28;20982;-56
2023/01/30 10:19:00;;;;;;;4.70;2.77;;;;;;;;;;4983402;28;21288;-58
2023/01/30 10:21:31;;;;;;;3.23;2.87;;;;;;;;;;5028658;28;20482;-58
2023/01/30 10:24:17;;;;;;;3.80;3.30;;;;;;;;;;5013874;28;20419;-55
2023/01/30 10:26:43;;;;;;;4.50;3.57;;;;;;;;;;5039745;28;21195;-56
2023/01/30 10:29:16;;;;;;;6.33;3.37;;;;;;;;;;5013062;28;21492;-63
2023/01/30 10:31:50;;;;;;;6.20;2.93;;;;;;;;;;5041176;28;20442;-61
2023/01/30 10:34:23;;;;;;;4.77;2.77;;;;;;;;;;4994242;28;20485;-58
2023/01/30 10:37:00;;;;;;;4.80;3.30;;;;;;;;;;5010394;28;20469;-59
2023/01/30 10:39:28;;;;;;;5.40;3.10;;;;;;;;;;5041392;28;21602;-58
2023/01/30 10:41:55;;;;;;;4.20;3.03;;;;;;;;;;5032427;28;21004;-55
2023/01/30 10:44:21;;;;;;;3.43;2.33;;;;;;;;;;5016565;28;20590;-55
2023/01/30 10:46:51;;;;;;;3.03;2.27;;;;;;;;;;5013367;28;20822;-55
2023/01/30 10:49:17;;;;;;;2.60;2.30;;;;;;;;;;5021134;28;20434;-56
2023/01/30 10:51:43;;;;;;;3.60;2.70;;;;;;;;;;4990314;28;20571;-56
2023/01/30 10:54:12;;;;;;;2.90;2.00;;;;;;;;;;5038983;28;20525;-55
2023/01/30 10:56:47;;;;;;;2.63;2.10;;;;;;;;;;5025845;28;20521;-56
2023/01/30 10:59:16;;;;;;;4.93;2.10;;;;;;;;;;5037785;28;20533;-54
2023/01/30 11:01:43;;;;;;;1.97;1.80;;;;;;;;;;5030949;28;20624;-57
2023/01/30 11:04:31;;;;;;;2.23;2.03;;;;;;;;;;5041364;28;20473;-57
2023/01/30 11:06:57;;;;;;;2.83;2.27;;;;;;;;;;4984925;28;20753;-56
2023/01/30 11:09:22;;;;;;;3.13;2.07;;;;;;;;;;5023510;28;20450;-55
2023/01/30 11:11:49;;;;;;;2.70;1.90;;;;;;;;;;5018425;28;21005;-55
2023/01/30 11:14:15;;;;;;;2.23;1.53;;;;;;;;;;5037746;28;20465;-56
2023/01/30 11:16:44;;;;;;;2.73;2.00;;;;;;;;;;5027200;28;20468;-56
2023/01/30 11:19:10;;;;;;;2.57;2.20;;;;;;;;;;4998633;28;20442;-57
2023/01/30 11:21:37;;;;;;;3.63;2.70;;;;;;;;;;5042560;28;20556;-57
2023/01/30 11:24:05;;;;;;;2.20;1.90;;;;;;;;;;4978710;28;21121;-55
2023/01/30 11:26:35;;;;;;;4.03;2.50;;;;;;;;;;5038475;28;20474;-56
2023/01/30 11:29:21;;;;;;;2.50;2.07;;;;;;;;;;5012822;28;20438;-55
2023/01/30 11:31:49;;;;;;;2.80;2.60;;;;;;;;;;5029399;28;20427;-56
2023/01/30 11:34:15;;;;;;;3.60;2.37;;;;;;;;;;5012863;28;20443;-55
2023/01/30 11:36:41;;;;;;;3.50;2.80;;;;;;;;;;5039076;28;20449;-56
2023/01/30 11:39:14;;;;;;;3.73;3.23;;;;;;;;;;4989567;28;20430;-55
2023/01/30 11:41:41;;;;;;;4.13;2.37;;;;;;;;;;5032350;28;20450;-55
2023/01/30 11:44:08;;;;;;;6.33;2.63;;;;;;;;;;5024359;28;20443;-55
2023/01/30 11:46:34;;;;;;;5.20;3.27;;;;;;;;;;5033978;28;20474;-56
2023/01/30 11:49:01;;;;;;;6.70;3.87;;;;;;;;;;5019998;28;20500;-54
2023/01/30 11:51:27;;;;;;;10.13;3.53;;;;;;;;;;5020091;28;20474;-56
2023/01/30 11:53:57;;;;;;;4.40;3.10;;;;;;;;;;5028629;28;20468;-57
2023/01/30 11:56:25;;;;;;;6.30;3.67;;;;;;;;;;5019082;28;20952;-62
2023/01/30 11:58:57;;;;;;;6.20;3.77;;;;;;;;;;5024451;28;20526;-56
2023/01/30 12:04:33;;;;;;;4.67;3.30;;;;;;;;;;5021596;28;21042;-54
2023/01/30 12:07:15;;;;;;;6.10;3.43;;;;;;;;;;5020009;28;20442;-55
2023/01/30 12:09:41;;;;;;;4.10;2.87;;;;;;;;;;5003582;28;20435;-54
2023/01/30 12:12:28;;;;;;;5.67;4.30;;;;;;;;;;5042216;28;20438;-53
2023/01/30 12:15:10;;;;;;;8.03;4.03;;;;;;;;;;4999260;28;20442;-55
2023/01/30 12:17:36;;;;;;;5.57;4.13;;;;;;;;;;4995754;28;20434;-54
2023/01/30 12:20:11;;;;;;;6.60;5.30;;;;;;;;;;5010818;28;22262;-53
2023/01/30 12:22:38;;;;;;;3.87;3.00;;;;;;;;;;5022214;28;20529;-54
2023/01/30 12:25:09;;;;;;;7.27;4.63;;;;;;;;;;5002222;28;21273;-54
2023/01/30 12:27:35;;;;;;;6.43;4.43;;;;;;;;;;5016403;28;20458;-54
2023/01/30 12:30:08;;;;;;;9.47;5.40;;;;;;;;;;4959527;28;21141;-54
2023/01/30 12:32:34;;;;;;;3.63;2.80;;;;;;;;;;4994407;28;20475;-54
2023/01/30 12:35:01;;;;;;;9.10;4.20;;;;;;;;;;5009606;28;20501;-53
2023/01/30 12:37:45;;;;;;;5.67;4.33;;;;;;;;;;5044940;28;20434;-54
2023/01/30 12:40:11;;;;;;;7.00;4.70;;;;;;;;;;5021285;28;20453;-53
2023/01/30 12:42:46;;;;;;;5.03;3.93;;;;;;;;;;5011527;28;20438;-54
2023/01/30 12:45:12;;;;;;;6.30;4.80;;;;;;;;;;5018251;28;20477;-54
2023/01/30 12:47:50;;;;;;;7.90;4.70;;;;;;;;;;4976486;28;20943;-54
2023/01/30 12:50:20;;;;;;;7.33;4.20;;;;;;;;;;5014458;28;20821;-54
2023/01/30 12:53:09;;;;;;;6.40;4.63;;;;;;;;;;5009170;28;20444;-54
2023/01/30 12:55:38;;;;;;;4.17;3.77;;;;;;;;;;4984411;28;20502;-53
2023/01/30 12:58:22;;;;;;;9.10;4.57;;;;;;;;;;5037975;28;20487;-53
2023/01/30 13:01:07;;;;;;;3.87;2.80;;;;;;;;;;4962133;28;20457;-54
2023/01/30 13:03:41;;;;;;;5.37;4.00;;;;;;;;;;4996808;28;20443;-54
2023/01/30 13:06:10;;;;;;;4.47;3.47;;;;;;;;;;5014765;28;20471;-54
2023/01/30 13:08:36;;;;;;;4.47;4.00;;;;;;;;;;5016455;28;20521;-55
2023/01/30 13:11:21;;;;;;;5.30;3.10;;;;;;;;;;5031456;28;20517;-54
2023/01/30 13:13:56;;;;;;;4.80;3.70;;;;;;;;;;5025998;28;20509;-55
2023/01/30 13:16:22;;;;;;;3.97;3.67;;;;;;;;;;4983529;28;20464;-55
2023/01/30 13:18:59;;;;;;;6.00;2.63;;;;;;;;;;5009970;28;20447;-54
2023/01/30 13:21:29;;;;;;;5.00;3.50;;;;;;;;;;5003614;28;21548;-55
2023/01/30 13:24:14;;;;;;;3.70;3.00;;;;;;;;;;5024385;28;20461;-54
2023/01/30 13:26:40;;;;;;;4.93;3.03;;;;;;;;;;5017464;28;20583;-55
2023/01/30 13:29:22;;;;;;;3.57;2.33;;;;;;;;;;5014087;28;20838;-54
2023/01/30 13:31:56;;;;;;;5.40;3.60;;;;;;;;;;4989913;28;20462;-57
2023/01/30 13:34:25;;;;;;;6.50;3.03;;;;;;;;;;5011634;28;20437;-55
2023/01/30 13:36:58;;;;;;;4.23;3.10;;;;;;;;;;5039613;28;20497;-54
2023/01/30 13:39:30;;;;;;;5.97;3.10;;;;;;;;;;5000144;28;20449;-57
2023/01/30 13:41:56;;;;;;;3.23;2.50;;;;;;;;;;5014917;28;20446;-57
2023/01/30 13:44:23;;;;;;;4.53;2.87;;;;;;;;;;5014439;28;20828;-56
2023/01/30 13:46:49;;;;;;;5.33;3.03;;;;;;;;;;5038447;28;20477;-56
2023/01/30 13:49:20;;;;;;;2.60;2.40;;;;;;;;;;5016714;28;20442;-55
2023/01/30 13:52:25;;;;;;;2.53;2.33;;;;;;;;;;5031944;28;20437;-56
2023/01/30 13:54:57;;;;;;;3.43;2.50;;;;;;;;;;4896675;29;20435;-55
2023/01/30 13:57:28;;;;;;;4.77;1.90;;;;;;;;;;4888736;29;20463;-55
2023/01/30 14:00:13;;;;;;;1.80;1.70;;;;;;;;;;4970654;28;20472;-54
2023/01/30 14:03:00;;;;;;;3.93;1.70;;;;;;;;;;4991498;28;20450;-55
2023/01/30 14:05:44;;;;;;;2.33;1.50;;;;;;;;;;4997618;28;20482;-55
2023/01/30 14:08:11;;;;;;;2.50;2.30;;;;;;;;;;5033376;28;20464;-53
2023/01/30 14:10:37;;;;;;;2.80;2.10;;;;;;;;;;5035412;28;20461;-56
2023/01/30 14:13:04;;;;;;;1.77;1.60;;;;;;;;;;4991766;28;20435;-55
2023/01/30 14:15:30;;;;;;;3.10;2.50;;;;;;;;;;5015534;28;20976;-55
2023/01/30 14:18:01;;;;;;;1.83;1.73;;;;;;;;;;4992338;28;20459;-56
2023/01/30 14:20:37;;;;;;;2.37;2.10;;;;;;;;;;5000016;28;21284;-55
2023/01/30 14:23:03;;;;;;;3.50;2.47;;;;;;;;;;4993391;28;20437;-59
2023/01/30 14:25:29;;;;;;;2.47;2.03;;;;;;;;;;5033850;28;20473;-55
2023/01/30 14:28:01;;;;;;;1.97;1.77;;;;;;;;;;5011637;28;21230;-55
2023/01/30 14:30:30;;;;;;;1.87;1.40;;;;;;;;;;5033658;28;20529;-55
2023/01/30 14:32:56;;;;;;;1.73;1.10;;;;;;;;;;4991893;28;20474;-55
2023/01/30 14:35:23;;;;;;;1.67;1.57;;;;;;;;;;5034591;28;21154;-55
2023/01/30 14:37:50;;;;;;;2.77;2.47;;;;;;;;;;5011398;28;21809;-58
2023/01/30 14:40:22;;;;;;;2.53;2.10;;;;;;;;;;5021778;28;20459;-51
2023/01/30 14:43:07;;;;;;;1.60;1.50;;;;;;;;;;5015511;28;20442;-53
2023/01/30 14:45:44;;;;;;;2.03;1.60;;;;;;;;;;5046315;28;20484;-56
2023/01/30 14:48:30;;;;;;;1.83;1.63;;;;;;;;;;5020072;28;20522;-53
2023/01/30 14:51:15;;;;;;;4.37;2.23;;;;;;;;;;5034087;28;20510;-54
2023/01/30 14:53:48;;;;;;;10.67;4.73;;;;;;;;;;5043326;28;21145;-56
2023/01/30 14:56:14;;;;;;;16.63;12.00;;;;;;;;;;5030746;28;20434;-54
2023/01/30 14:58:40;;;;;;;2.80;2.23;;;;;;;;;;5027998;28;20595;-53
2023/01/30 15:01:06;;;;;;;2.07;1.87;;;;;;;;;;5011525;28;20521;-54